createdAt,value
2023-02-09T00:00:09.331Z,-0.60
2023-02-09T00:23:13.721Z,-0.70
2023-02-09T00:30:37.832Z,-0.70
2023-02-09T00:35:44.823Z,-0.80
2023-02-09T00:38:15.371Z,-1.80
2023-02-09T00:40:52.617Z,-0.90
2023-02-09T00:48:28.410Z,-1.00
2023-02-09T00:53:24.283Z,-0.90
2023-02-09T00:55:52.195Z,-0.20
2023-02-09T00:58:22.742Z,-0.20
2023-02-09T01:03:25.831Z,-1.00
2023-02-09T01:05:59.101Z,-1.00
2023-02-09T01:10:53.783Z,1.20
2023-02-09T01:13:21.720Z,-1.40
2023-02-09T01:15:55.059Z,-1.00
2023-02-09T01:18:24.567Z,-1.10
2023-02-09T01:28:21.097Z,-1.20
2023-02-09T01:30:50.457Z,-1.10
2023-02-09T01:33:17.759Z,0.00
2023-02-09T01:43:11.724Z,-1.20
2023-02-09T01:45:54.832Z,-1.20
2023-02-09T01:48:26.685Z,-1.10
2023-02-09T01:50:57.869Z,-1.20
2023-02-09T01:56:05.821Z,-1.20
2023-02-09T01:58:33.882Z,-1.80
2023-02-09T02:03:32.226Z,-1.30
2023-02-09T02:06:11.314Z,2.70
2023-02-09T02:11:20.157Z,-1.50
2023-02-09T02:19:02.144Z,-1.20
2023-02-09T02:21:49.286Z,-1.30
2023-02-09T02:24:45.748Z,-1.90
2023-02-09T02:27:41.304Z,1.50
2023-02-09T02:30:23.429Z,-1.40
2023-02-09T02:32:58.127Z,-1.40
2023-02-09T02:35:36.816Z,-1.40
2023-02-09T02:38:28.906Z,-1.40
2023-02-09T02:41:06.379Z,-1.40
2023-02-09T02:43:43.928Z,-1.40
2023-02-09T02:46:19.783Z,-1.40
2023-02-09T02:48:55.472Z,-2.20
2023-02-09T02:51:39.484Z,-0.70
2023-02-09T02:54:13.064Z,-1.40
2023-02-09T02:56:44.154Z,-1.40
2023-02-09T02:59:17.262Z,-1.50
2023-02-09T03:01:53.678Z,-3.20
2023-02-09T03:04:22.532Z,-1.00
2023-02-09T03:06:49.482Z,-2.30
2023-02-09T03:09:18.506Z,-1.50
2023-02-09T03:11:51.532Z,-1.50
2023-02-09T03:14:56.739Z,-1.50
2023-02-09T03:18:02.540Z,-1.90
2023-02-09T03:20:41.740Z,-1.60
2023-02-09T03:23:15.891Z,-1.50
2023-02-09T03:25:48.663Z,-1.50
2023-02-09T03:28:25.887Z,-1.50
2023-02-09T03:30:53.716Z,-2.40
2023-02-09T03:33:27.762Z,-1.50
2023-02-09T03:35:57.125Z,-1.30
2023-02-09T03:38:24.635Z,-1.90
2023-02-09T03:43:19.239Z,-2.50
2023-02-09T03:45:46.338Z,-1.40
2023-02-09T03:48:13.275Z,-1.10
2023-02-09T03:50:40.327Z,-2.50
2023-02-09T03:53:07.384Z,1.40
2023-02-09T03:55:34.672Z,-0.30
2023-02-09T03:58:01.697Z,-1.40
2023-02-09T04:00:28.939Z,-1.40
2023-02-09T04:02:56.322Z,-2.00
2023-02-09T04:05:23.500Z,-1.40
2023-02-09T04:08:18.302Z,-1.40
2023-02-09T04:23:05.203Z,-1.70
2023-02-09T04:25:32.242Z,-1.40
2023-02-09T04:27:59.299Z,-2.60
2023-02-09T04:30:26.291Z,-1.40
2023-02-09T04:35:20.704Z,-0.80
2023-02-09T04:40:15.167Z,-2.60
2023-02-09T04:42:46.082Z,-1.40
2023-02-09T04:50:08.762Z,-1.40
2023-02-09T04:55:03.361Z,-1.90
2023-02-09T05:00:36.561Z,-1.60
2023-02-09T05:03:04.057Z,-1.40
2023-02-09T05:10:26.249Z,-1.30
2023-02-09T05:12:53.233Z,-1.00
2023-02-09T05:15:20.402Z,1.50
2023-02-09T05:17:50.429Z,-1.40
2023-02-09T05:20:17.672Z,-1.50
2023-02-09T05:22:44.625Z,-1.40
2023-02-09T05:27:39.294Z,-1.80
2023-02-09T05:30:06.669Z,-0.20
2023-02-09T05:32:33.722Z,-1.70
2023-02-09T05:35:00.974Z,-1.50
2023-02-09T05:39:55.285Z,-1.30
2023-02-09T05:44:50.977Z,-2.20
2023-02-09T05:47:20.030Z,1.90
2023-02-09T05:49:47.259Z,-1.00
2023-02-09T05:52:16.632Z,-1.00
2023-02-09T05:57:11.340Z,0.20
2023-02-09T05:59:38.471Z,-1.00
2023-02-09T06:04:33.227Z,-2.30
2023-02-09T06:16:54.396Z,-0.90
2023-02-09T06:34:09.831Z,-0.90
2023-02-09T06:36:36.846Z,-0.70
2023-02-09T06:39:08.294Z,-0.80
2023-02-09T06:41:35.755Z,-1.00
2023-02-09T06:48:59.553Z,-0.80
2023-02-09T06:56:22.048Z,-0.30
2023-02-09T07:01:16.825Z,-0.70
2023-02-09T07:06:17.656Z,-1.10
2023-02-09T07:08:45.550Z,0.40
2023-02-09T07:11:15.520Z,-0.60
2023-02-09T07:13:43.673Z,-2.10
2023-02-09T07:16:11.709Z,-0.60
2023-02-09T07:21:09.816Z,-0.50
2023-02-09T07:23:37.115Z,-0.50
2023-02-09T07:26:06.453Z,-0.50
2023-02-09T07:28:35.436Z,-0.50
2023-02-09T07:31:08.409Z,-0.40
2023-02-09T07:36:08.632Z,-0.30
2023-02-09T07:41:23.620Z,-0.20
2023-02-09T07:49:01.579Z,-0.10
2023-02-09T08:04:09.011Z,0.20
2023-02-09T08:06:52.254Z,0.30
2023-02-09T08:11:55.512Z,0.40
2023-02-09T08:14:29.131Z,0.40
2023-02-09T08:17:24.497Z,0.70
2023-02-09T08:20:20.562Z,0.20
2023-02-09T08:22:51.829Z,0.60
2023-02-09T08:25:41.316Z,0.70
2023-02-09T08:30:45.231Z,0.80
2023-02-09T08:42:04.805Z,1.10
2023-02-09T08:47:20.221Z,1.30
2023-02-09T08:57:31.933Z,1.50
2023-02-09T09:02:45.830Z,1.40
2023-02-09T09:05:15.958Z,1.40
2023-02-09T09:10:11.258Z,-0.40
2023-02-09T09:12:38.392Z,2.60
2023-02-09T09:15:10.272Z,1.50
2023-02-09T09:30:01.336Z,1.70
2023-02-09T09:34:58.228Z,1.70
2023-02-09T09:37:26.321Z,2.80
2023-02-09T09:39:56.106Z,2.60
2023-02-09T09:42:38.426Z,2.00
2023-02-09T09:45:10.804Z,2.00
2023-02-09T09:47:41.940Z,2.10
2023-02-09T09:50:20.523Z,3.30
2023-02-09T09:53:33.761Z,2.10
2023-02-09T09:56:08.891Z,2.10
2023-02-09T09:58:41.697Z,2.20
2023-02-09T10:01:21.636Z,2.30
2023-02-09T10:04:09.349Z,3.40
2023-02-09T10:06:45.498Z,6.40
2023-02-09T10:09:33.243Z,0.40
2023-02-09T10:12:33.142Z,4.30
2023-02-09T10:15:15.660Z,0.10
2023-02-09T10:17:43.577Z,2.50
2023-02-09T10:20:11.854Z,1.80
2023-02-09T10:25:47.000Z,3.10
2023-02-09T10:28:25.154Z,3.20
2023-02-09T10:30:55.154Z,2.50
2023-02-09T10:33:23.092Z,4.00
2023-02-09T10:36:02.100Z,3.30
2023-02-09T10:38:33.515Z,2.80
2023-02-09T10:41:03.012Z,3.10
2023-02-09T10:43:34.703Z,3.50
2023-02-09T10:46:17.337Z,3.30
2023-02-09T10:48:48.104Z,3.50
2023-02-09T10:51:33.580Z,4.00
2023-02-09T10:54:07.242Z,4.70
2023-02-09T10:56:47.788Z,3.70
2023-02-09T10:59:24.089Z,5.00
2023-02-09T11:02:01.714Z,3.70
2023-02-09T11:04:40.780Z,3.60
2023-02-09T11:07:18.296Z,3.80
2023-02-09T11:09:50.245Z,3.70
2023-02-09T11:12:23.305Z,3.50
2023-02-09T11:15:03.483Z,3.70
2023-02-09T11:17:45.143Z,2.70
2023-02-09T11:20:52.942Z,3.50
2023-02-09T11:24:03.241Z,2.60
2023-02-09T11:26:59.221Z,4.80
2023-02-09T11:29:54.239Z,4.40
2023-02-09T11:32:44.921Z,4.40
2023-02-09T11:35:36.086Z,3.80
2023-02-09T11:38:15.990Z,4.60
2023-02-09T11:40:55.911Z,3.80
2023-02-09T11:43:48.095Z,3.70
2023-02-09T11:46:20.958Z,4.00
2023-02-09T11:49:24.882Z,3.70
2023-02-09T11:51:59.580Z,3.50
2023-02-09T11:54:33.324Z,3.40
2023-02-09T11:57:05.544Z,4.10
2023-02-09T11:59:41.091Z,3.20
2023-02-09T12:02:34.332Z,4.40
2023-02-09T12:05:02.715Z,3.20
2023-02-09T12:07:48.004Z,3.20
2023-02-09T12:10:32.552Z,3.10
2023-02-09T12:13:23.216Z,3.70
2023-02-09T12:16:06.722Z,3.10
2023-02-09T12:18:38.228Z,3.10
2023-02-09T12:21:07.344Z,3.20
2023-02-09T12:23:46.640Z,3.10
2023-02-09T12:26:16.886Z,3.10
2023-02-09T12:29:05.982Z,3.10
2023-02-09T12:32:06.473Z,3.00
2023-02-09T12:34:55.431Z,3.20
2023-02-09T12:37:27.878Z,3.00
2023-02-09T12:40:07.699Z,3.10
2023-02-09T12:43:01.010Z,4.30
2023-02-09T12:45:38.683Z,4.00
2023-02-09T12:50:48.334Z,3.10
2023-02-09T12:53:24.637Z,3.10
2023-02-09T12:56:12.621Z,3.20
2023-02-09T12:58:45.812Z,4.60
2023-02-09T13:01:18.904Z,3.20
2023-02-09T13:04:05.680Z,4.40
2023-02-09T13:06:54.429Z,4.30
2023-02-09T13:09:32.817Z,3.10
2023-02-09T13:12:18.197Z,3.10
2023-02-09T13:14:49.545Z,3.10
2023-02-09T13:17:44.280Z,3.00
2023-02-09T13:20:45.342Z,3.10
2023-02-09T13:23:34.967Z,3.50
2023-02-09T13:26:26.904Z,3.10
2023-02-09T13:29:22.165Z,3.00
2023-02-09T13:32:11.258Z,3.00
2023-02-09T13:34:44.300Z,3.20
2023-02-09T13:37:22.503Z,3.80
2023-02-09T13:40:06.496Z,3.10
2023-02-09T13:42:36.714Z,3.20
2023-02-09T13:45:17.106Z,3.10
2023-02-09T13:47:52.979Z,3.20
2023-02-09T13:50:32.939Z,3.20
2023-02-09T13:53:25.518Z,3.20
2023-02-09T13:55:54.623Z,3.10
2023-02-09T13:58:28.456Z,3.10
2023-02-09T14:01:04.106Z,2.50
2023-02-09T14:03:47.003Z,3.10
2023-02-09T14:07:01.024Z,4.50
2023-02-09T14:09:49.196Z,3.20
2023-02-09T14:12:46.524Z,3.10
2023-02-09T14:15:33.197Z,4.70
2023-02-09T14:18:00.520Z,2.30
2023-02-09T14:20:32.087Z,7.10
2023-02-09T14:23:01.396Z,3.20
2023-02-09T14:25:30.151Z,3.20
2023-02-09T14:27:58.427Z,3.20
2023-02-09T14:30:36.536Z,2.90
2023-02-09T14:33:04.087Z,2.50
2023-02-09T14:35:39.923Z,3.20
2023-02-09T14:38:41.530Z,3.20
2023-02-09T14:41:28.849Z,4.80
2023-02-09T14:44:07.967Z,3.10
2023-02-09T14:46:53.931Z,3.10
2023-02-09T14:49:24.366Z,3.10
2023-02-09T14:52:04.732Z,2.80
2023-02-09T14:54:34.345Z,3.10
2023-02-09T15:05:09.290Z,3.20
2023-02-09T15:07:43.730Z,3.10
2023-02-09T15:10:39.240Z,3.10
2023-02-09T15:13:35.130Z,3.10
2023-02-09T15:16:08.640Z,3.10
2023-02-09T15:21:06.348Z,3.10
2023-02-09T15:23:33.359Z,3.30
2023-02-09T15:28:29.947Z,2.90
2023-02-09T15:31:00.213Z,3.10
2023-02-09T15:33:29.538Z,3.00
2023-02-09T15:41:16.746Z,2.90
2023-02-09T15:44:02.998Z,4.10
2023-02-09T15:46:51.207Z,2.90
2023-02-09T15:49:18.521Z,2.90
2023-02-09T15:51:45.700Z,3.00
2023-02-09T15:54:18.184Z,2.90
2023-02-09T15:59:22.976Z,3.60
2023-02-09T16:01:50.406Z,3.60
2023-02-09T16:04:21.242Z,2.90
2023-02-09T16:06:54.971Z,2.90
2023-02-09T16:09:26.864Z,2.80
2023-02-09T16:11:56.263Z,4.70
2023-02-09T16:14:26.329Z,2.90
2023-02-09T16:16:53.673Z,1.20
2023-02-09T16:21:53.955Z,2.40
2023-02-09T16:24:36.121Z,3.00
2023-02-09T16:27:14.849Z,1.80
2023-02-09T16:29:42.242Z,1.80
2023-02-09T16:32:28.633Z,3.50
2023-02-09T16:35:02.043Z,3.90
2023-02-09T16:40:27.489Z,3.00
2023-02-09T16:43:02.072Z,2.40
2023-02-09T16:45:39.862Z,3.00
2023-02-09T16:48:50.861Z,3.00
2023-02-09T16:51:23.340Z,3.00
2023-02-09T16:53:56.052Z,2.90
2023-02-09T17:04:10.827Z,2.90
2023-02-09T17:06:57.366Z,2.90
2023-02-09T17:09:37.777Z,2.90
2023-02-09T17:14:49.486Z,2.70
2023-02-09T17:17:23.717Z,3.00
2023-02-09T17:24:58.317Z,2.90
2023-02-09T17:27:46.330Z,2.80
2023-02-09T17:30:39.191Z,3.30
2023-02-09T17:33:32.900Z,2.70
2023-02-09T17:36:26.879Z,2.70
2023-02-09T17:39:02.939Z,2.60
2023-02-09T17:41:46.950Z,2.60
2023-02-09T17:44:44.957Z,2.50
2023-02-09T17:47:31.971Z,2.40
2023-02-09T17:50:04.782Z,2.30
2023-02-09T17:57:30.266Z,2.20
2023-02-09T17:59:57.383Z,2.40
2023-02-09T18:04:54.872Z,2.40
2023-02-09T18:10:04.385Z,2.50
2023-02-09T18:12:38.544Z,3.00
2023-02-09T18:20:25.332Z,2.60
2023-02-09T18:23:03.337Z,2.70
2023-02-09T18:25:53.527Z,2.70
2023-02-09T18:30:51.419Z,2.70
2023-02-09T18:36:08.032Z,2.70
2023-02-09T18:38:48.173Z,2.80
2023-02-09T18:46:14.485Z,2.90
2023-02-09T18:48:41.748Z,2.80
2023-02-09T18:51:10.363Z,2.90
2023-02-09T18:53:40.752Z,2.90
2023-02-09T18:56:09.100Z,3.40
2023-02-09T19:01:19.296Z,2.90
2023-02-09T19:04:16.662Z,3.00
2023-02-09T19:06:49.474Z,1.90
2023-02-09T19:12:02.662Z,3.00
2023-02-09T19:17:40.600Z,3.00
2023-02-09T19:20:12.710Z,2.80
2023-02-09T19:22:45.356Z,3.00
2023-02-09T19:25:12.621Z,3.10
2023-02-09T19:27:44.097Z,2.40
2023-02-09T19:30:17.888Z,2.90
2023-02-09T19:32:45.125Z,3.10
2023-02-09T19:35:12.392Z,2.00
2023-02-09T19:37:42.741Z,2.00
2023-02-09T19:40:23.295Z,3.20
2023-02-09T19:50:16.072Z,2.80
2023-02-09T19:52:46.781Z,2.50
2023-02-09T20:00:19.173Z,3.10
2023-02-09T20:02:51.146Z,3.20
2023-02-09T20:07:55.891Z,1.30
2023-02-09T20:10:25.640Z,3.30
2023-02-09T20:12:55.814Z,5.50
2023-02-09T20:17:55.713Z,3.40
2023-02-09T20:25:22.567Z,3.70
2023-02-09T20:27:59.102Z,3.50
2023-02-09T20:33:26.826Z,3.40
2023-02-09T20:36:06.593Z,3.40
2023-02-09T20:38:40.533Z,3.50
2023-02-09T20:41:13.997Z,3.50
2023-02-09T20:44:32.630Z,3.50
2023-02-09T20:47:09.238Z,3.70
2023-02-09T20:49:44.520Z,4.80
2023-02-09T20:57:36.918Z,3.50
2023-02-09T21:00:21.000Z,3.50
2023-02-09T21:03:06.982Z,3.50
2023-02-09T21:05:50.393Z,4.00
2023-02-09T21:14:49.627Z,3.60
2023-02-09T21:17:30.193Z,3.50
2023-02-09T21:23:12.357Z,3.60
2023-02-09T21:25:42.903Z,3.60
2023-02-09T21:32:15.803Z,3.70
2023-02-09T21:40:30.020Z,3.60
2023-02-09T21:43:18.898Z,3.60
2023-02-09T21:48:55.818Z,3.60
2023-02-09T21:53:55.309Z,3.10
2023-02-09T21:56:56.573Z,3.50
2023-02-09T22:04:08.974Z,3.50
2023-02-09T22:08:08.721Z,3.40
2023-02-09T22:19:59.804Z,3.50
2023-02-09T22:23:10.984Z,3.90
2023-02-09T23:52:22.624Z,3.50
